Time;durP1;ratioP1;P1;durP2;ratioP2;P2;SDS_P1;SDS_P2;PMS_P1;PMS_P2;Temp;Humidity;BMP_temperature;BMP_pressure;BME280_temperature;BME280_humidity;BME280_pressure;Samples;Min_cycle;Max_cycle;Signal;HPM_P1;HPM_P2
2022/12/30 00:00:48;;;;;;;1.00;0.80;;;;;;;6.90;100.00;98040.19;5079161;22;20307;-79
2022/12/30 00:03:14;;;;;;;0.97;0.87;;;;;;;6.92;100.00;98040.97;5051775;28;20216;-79
2022/12/30 00:05:42;;;;;;;0.90;0.60;;;;;;;6.91;100.00;98036.63;5055327;28;20219;-80
2022/12/30 00:08:45;;;;;;;1.00;0.53;;;;;;;6.86;100.00;98041.31;5055154;28;20232;-80
2022/12/30 00:10:55;;;;;;;1.43;0.60;;;;;;;6.82;100.00;98038.91;5054228;28;20228;-80
2022/12/30 00:33:30;;;;;;;1.53;0.60;;;;;;;6.82;100.00;98060.78;5054920;28;20261;-79
2022/12/30 00:35:57;;;;;;;0.60;0.60;;;;;;;6.81;100.00;98053.84;5054893;28;20195;-79
2022/12/30 00:38:25;;;;;;;0.80;0.60;;;;;;;6.83;100.00;98061.66;5054659;28;20219;-79
2022/12/30 00:43:36;;;;;;;2.77;0.70;;;;;;;6.82;100.00;98065.19;5054665;28;20575;-79
2022/12/30 00:46:02;;;;;;;0.83;0.50;;;;;;;6.72;100.00;98064.84;5054503;28;20216;-80
2022/12/30 00:56:44;;;;;;;1.47;1.10;;;;;;;6.55;100.00;98069.34;5054446;28;20203;-80
2022/12/30 00:59:11;;;;;;;1.30;1.00;;;;;;;6.53;100.00;98074.66;5053744;28;20291;-80
2022/12/30 01:01:38;;;;;;;0.93;0.73;;;;;;;6.53;100.00;98076.44;5053909;28;20254;-80
2022/12/30 01:04:05;;;;;;;0.50;0.50;;;;;;;6.49;100.00;98083.66;5054177;28;20208;-79
2022/12/30 01:06:31;;;;;;;0.80;0.60;;;;;;;6.44;100.00;98096.16;5054019;28;20235;-80
2022/12/30 01:08:59;;;;;;;1.27;0.70;;;;;;;6.41;100.00;98095.50;5053670;28;20216;-79
2022/12/30 01:11:25;;;;;;;0.80;0.80;;;;;;;6.41;100.00;98096.31;5053776;28;20237;-80
2022/12/30 01:13:52;;;;;;;2.23;0.60;;;;;;;6.46;100.00;98104.81;5054127;28;20211;-79
2022/12/30 01:16:18;;;;;;;1.73;0.70;;;;;;;6.48;100.00;98102.09;5053837;28;20215;-80
2022/12/30 01:18:45;;;;;;;2.30;0.60;;;;;;;6.43;100.00;98099.72;5053364;28;20666;-79
2022/12/30 01:21:11;;;;;;;1.17;0.53;;;;;;;6.49;100.00;98103.78;5053640;28;20239;-80
2022/12/30 01:23:38;;;;;;;1.13;0.60;;;;;;;6.57;100.00;98112.97;5053492;28;20208;-80
2022/12/30 01:26:07;;;;;;;1.40;0.70;;;;;;;6.61;100.00;98106.63;5053943;28;20212;-80
2022/12/30 01:28:35;;;;;;;0.60;0.50;;;;;;;6.66;100.00;98101.94;5052390;28;20212;-79
2022/12/30 01:31:06;;;;;;;1.27;0.70;;;;;;;6.71;100.00;98106.97;5053357;28;20869;-79
2022/12/30 01:33:33;;;;;;;1.37;0.77;;;;;;;6.75;100.00;98106.72;5053771;28;20277;-79
2022/12/30 01:36:00;;;;;;;0.57;0.40;;;;;;;6.73;100.00;98107.72;5053680;28;20213;-79
2022/12/30 01:38:28;;;;;;;1.23;0.80;;;;;;;6.70;100.00;98114.00;5053560;28;20223;-79
2022/12/30 01:40:54;;;;;;;0.97;0.80;;;;;;;6.69;100.00;98111.44;5053211;28;20231;-79
2022/12/30 01:43:44;;;;;;;2.30;0.73;;;;;;;6.63;100.00;98115.25;5052513;28;20214;-80
2022/12/30 01:46:15;;;;;;;1.23;0.60;;;;;;;6.59;100.00;98115.50;5053222;28;20665;-79
2022/12/30 01:48:43;;;;;;;2.07;0.87;;;;;;;6.55;100.00;98125.34;5052942;28;20216;-80
2022/12/30 01:51:14;;;;;;;1.00;0.87;;;;;;;6.53;100.00;98127.16;5053270;28;20269;-80
2022/12/30 01:53:44;;;;;;;1.00;0.90;;;;;;;6.52;100.00;98122.84;5053398;28;20211;-80
2022/12/30 01:56:16;;;;;;;1.40;1.03;;;;;;;6.43;100.00;98125.13;5053090;28;20219;-79
2022/12/30 01:58:48;;;;;;;2.00;1.20;;;;;;;6.46;100.00;98124.94;5053700;28;20204;-79
2022/12/30 02:01:15;;;;;;;1.00;0.90;;;;;;;6.28;100.00;98121.53;5049726;28;20231;-79
2022/12/30 02:03:45;;;;;;;1.50;0.90;;;;;;;6.21;100.00;98125.41;5052303;28;20568;-79
2022/12/30 02:06:12;;;;;;;0.97;0.80;;;;;;;6.10;100.00;98122.47;5053426;28;20211;-79
2022/12/30 02:08:39;;;;;;;0.80;0.80;;;;;;;6.02;100.00;98119.41;5053012;28;20228;-79
2022/12/30 02:11:06;;;;;;;1.27;1.00;;;;;;;5.99;100.00;98113.47;5053074;28;20232;-79
2022/12/30 02:13:34;;;;;;;0.97;0.80;;;;;;;5.89;100.00;98125.34;5051974;28;20211;-79
2022/12/30 02:16:22;;;;;;;0.70;0.70;;;;;;;5.83;100.00;98118.66;5052268;28;20211;-79
2022/12/30 02:19:01;;;;;;;1.37;1.00;;;;;;;5.78;100.00;98118.00;5052996;28;20215;-79
2022/12/30 02:21:57;;;;;;;0.70;0.70;;;;;;;5.69;100.00;98122.84;5052831;28;20227;-79
2022/12/30 02:24:57;;;;;;;0.70;0.70;;;;;;;5.61;100.00;98117.97;5053062;28;20214;-79
2022/12/30 02:27:48;;;;;;;1.20;0.70;;;;;;;5.53;100.00;98135.88;5052145;28;20234;-79
2022/12/30 02:30:20;;;;;;;1.07;0.70;;;;;;;5.38;100.00;98141.00;5052291;28;20218;-79
2022/12/30 02:33:02;;;;;;;1.20;0.70;;;;;;;5.30;100.00;98144.00;5053024;28;20209;-79
2022/12/30 02:35:36;;;;;;;1.63;0.80;;;;;;;5.22;100.00;98140.91;5052379;28;20214;-79
2022/12/30 02:38:14;;;;;;;0.93;0.80;;;;;;;5.11;100.00;98150.19;5052514;28;20219;-79
2022/12/30 02:46:29;;;;;;;1.23;1.00;;;;;;;4.99;100.00;98163.84;5052317;28;20214;-79
2022/12/30 02:48:59;;;;;;;0.60;0.60;;;;;;;5.02;100.00;98168.94;5052258;28;20218;-79
2022/12/30 02:54:12;;;;;;;0.93;0.83;;;;;;;5.01;100.00;98162.03;5052284;28;20219;-79
2022/12/30 02:56:47;;;;;;;0.77;0.77;;;;;;;4.96;100.00;98159.59;5052182;28;20223;-79
2022/12/30 03:05:05;;;;;;;0.70;0.70;;;;;;;4.90;100.00;98169.53;5052290;28;20363;-79
2022/12/30 03:07:38;;;;;;;1.53;0.90;;;;;;;4.86;100.00;98173.19;5052094;28;20237;-79
2022/12/30 03:13:04;;;;;;;1.20;0.60;;;;;;;4.78;100.00;98176.19;5052206;28;20257;-79
2022/12/30 03:15:37;;;;;;;0.80;0.80;;;;;;;4.78;100.00;98173.56;5051484;28;20209;-80
2022/12/30 03:18:04;;;;;;;0.97;0.83;;;;;;;4.74;100.00;98172.00;5051575;28;20210;-80
2022/12/30 03:20:33;;;;;;;1.03;0.70;;;;;;;4.77;100.00;98163.97;5051224;28;20232;-80
2022/12/30 03:28:34;;;;;;;2.20;0.80;;;;;;;4.72;100.00;98163.38;5051140;28;20279;-80
2022/12/30 03:31:03;;;;;;;0.90;0.60;;;;;;;4.64;100.00;98167.25;5051119;28;20601;-80
2022/12/30 03:33:32;;;;;;;1.97;0.77;;;;;;;4.57;100.00;98174.50;5051328;28;20233;-80
2022/12/30 03:36:09;;;;;;;0.90;0.60;;;;;;;4.51;100.00;98172.16;5051116;28;20312;-80
2022/12/30 03:38:40;;;;;;;1.00;0.70;;;;;;;4.45;100.00;98167.22;5050292;28;20209;-80
2022/12/30 03:41:08;;;;;;;0.70;0.67;;;;;;;4.37;100.00;98158.84;5050877;28;20578;-80
2022/12/30 03:43:36;;;;;;;0.80;0.70;;;;;;;4.43;100.00;98155.97;5051206;28;20231;-80
2022/12/30 03:46:02;;;;;;;0.60;0.60;;;;;;;4.40;100.00;98150.84;5051233;28;20296;-80
2022/12/30 03:48:29;;;;;;;0.93;0.70;;;;;;;4.41;100.00;98157.78;5051040;28;20268;-80
2022/12/30 03:50:55;;;;;;;1.00;0.80;;;;;;;4.38;100.00;98157.94;5050654;28;20245;-80
2022/12/30 03:53:23;;;;;;;1.03;0.93;;;;;;;4.43;100.00;98158.59;5051036;28;20238;-80
2022/12/30 03:55:51;;;;;;;0.90;0.90;;;;;;;4.42;100.00;98154.28;5051228;28;20212;-80
2022/12/30 03:58:18;;;;;;;1.50;1.00;;;;;;;4.42;100.00;98156.03;5051228;28;20206;-80
2022/12/30 04:00:44;;;;;;;1.07;0.90;;;;;;;4.46;100.00;98158.44;5050621;28;20237;-79
2022/12/30 04:03:11;;;;;;;1.10;0.90;;;;;;;4.45;100.00;98161.16;5050853;28;20214;-80
2022/12/30 04:05:37;;;;;;;1.10;1.00;;;;;;;4.41;100.00;98149.09;5051231;28;20557;-79
2022/12/30 04:08:04;;;;;;;1.30;1.07;;;;;;;4.36;100.00;98153.69;5050804;28;20245;-80
2022/12/30 04:10:33;;;;;;;1.13;0.80;;;;;;;4.32;100.00;98139.91;5050709;28;20234;-79
2022/12/30 04:12:59;;;;;;;1.47;1.00;;;;;;;4.27;100.00;98131.38;5051250;28;20225;-80
2022/12/30 04:15:26;;;;;;;1.33;0.80;;;;;;;4.28;100.00;98133.09;5050797;28;20585;-80
2022/12/30 04:17:52;;;;;;;1.57;1.10;;;;;;;4.22;100.00;98135.13;5011216;28;20202;-79
2022/12/30 04:20:18;;;;;;;1.40;1.03;;;;;;;4.24;100.00;98142.00;5010733;28;20220;-80
2022/12/30 04:22:45;;;;;;;1.00;0.90;;;;;;;4.23;100.00;98144.69;5011060;28;20301;-80
2022/12/30 04:25:11;;;;;;;1.10;0.80;;;;;;;4.31;100.00;98138.19;5011338;28;20210;-79
2022/12/30 04:27:39;;;;;;;1.10;1.00;;;;;;;4.24;100.00;98136.78;5011001;28;20728;-79
2022/12/30 04:30:07;;;;;;;1.20;1.00;;;;;;;4.23;100.00;98142.91;5010689;28;20222;-80
2022/12/30 04:32:33;;;;;;;2.80;1.37;;;;;;;4.19;100.00;98149.19;5011078;28;20215;-80
2022/12/30 04:35:00;;;;;;;1.77;0.90;;;;;;;4.22;100.00;98149.06;5010979;28;20223;-80
2022/12/30 04:37:26;;;;;;;1.90;1.00;;;;;;;4.18;100.00;98147.50;5010866;28;20211;-80
2022/12/30 04:39:53;;;;;;;1.00;0.83;;;;;;;4.11;100.00;98129.53;5010644;28;20212;-79
2022/12/30 04:42:19;;;;;;;0.80;0.80;;;;;;;4.06;100.00;98132.34;5010892;28;20237;-79
2022/12/30 04:44:47;;;;;;;1.57;0.97;;;;;;;4.08;100.00;98138.34;5010857;28;20221;-79
2022/12/30 04:47:13;;;;;;;1.73;0.90;;;;;;;4.10;100.00;98143.53;5010773;28;20215;-80
2022/12/30 04:49:40;;;;;;;2.33;0.90;;;;;;;4.10;100.00;98149.59;5011499;28;20207;-79
2022/12/30 04:52:06;;;;;;;0.70;0.70;;;;;;;4.09;100.00;98152.28;5014188;28;20235;-79
2022/12/30 04:54:33;;;;;;;1.43;0.87;;;;;;;4.06;100.00;98149.78;5014438;28;20214;-79
2022/12/30 04:57:00;;;;;;;1.17;0.80;;;;;;;3.97;100.00;98153.66;5014351;28;20206;-79
2022/12/30 04:59:26;;;;;;;1.80;1.00;;;;;;;3.89;100.00;98150.50;5014288;28;20586;-79
2022/12/30 05:01:54;;;;;;;2.03;1.00;;;;;;;3.82;100.00;98151.69;5014204;28;20238;-80
2022/12/30 05:04:20;;;;;;;2.17;0.93;;;;;;;3.85;100.00;98143.72;5014434;28;20210;-79
2022/12/30 05:06:47;;;;;;;1.00;0.87;;;;;;;3.83;100.00;98150.78;5014469;28;20216;-79
2022/12/30 05:09:13;;;;;;;1.23;0.80;;;;;;;3.80;100.00;98143.03;5022771;28;20225;-79
2022/12/30 05:11:40;;;;;;;0.90;0.73;;;;;;;3.79;100.00;98141.34;5034129;28;20252;-80
2022/12/30 05:14:06;;;;;;;1.70;0.90;;;;;;;3.85;100.00;98138.47;5034106;28;20219;-80
2022/12/30 05:16:33;;;;;;;1.60;0.80;;;;;;;3.83;100.00;98149.91;5033963;28;20573;-80
2022/12/30 05:19:01;;;;;;;1.27;0.70;;;;;;;3.88;100.00;98151.44;5033630;28;20214;-80
2022/12/30 05:21:27;;;;;;;2.33;0.83;;;;;;;3.87;100.00;98156.72;5033990;28;20597;-80
2022/12/30 05:26:38;;;;;;;0.90;0.87;;;;;;;3.85;100.00;98163.78;5033931;28;20280;-80
2022/12/30 05:29:04;;;;;;;2.13;0.80;;;;;;;3.82;100.00;98149.09;5033517;28;20228;-80
2022/12/30 05:31:31;;;;;;;1.80;1.00;;;;;;;3.85;100.00;98135.88;5033454;28;20262;-80
2022/12/30 05:33:57;;;;;;;2.10;0.90;;;;;;;3.87;100.00;98131.44;5033779;28;20213;-80
2022/12/30 05:36:25;;;;;;;0.87;0.80;;;;;;;3.90;100.00;98136.53;5033533;28;20211;-80
2022/12/30 05:38:51;;;;;;;1.30;1.20;;;;;;;3.96;100.00;98143.25;5033167;28;20675;-80
2022/12/30 05:41:18;;;;;;;1.40;1.07;;;;;;;3.96;100.00;98151.94;5033401;28;20606;-80
2022/12/30 05:43:44;;;;;;;0.60;0.60;;;;;;;3.92;100.00;98150.38;5033394;28;20213;-80
2022/12/30 05:46:11;;;;;;;0.87;0.67;;;;;;;3.87;100.00;98154.97;5033163;28;20206;-80
2022/12/30 05:48:37;;;;;;;1.53;0.60;;;;;;;3.84;100.00;98151.63;5033404;28;20582;-80
2022/12/30 05:51:04;;;;;;;0.90;0.90;;;;;;;3.79;100.00;98149.19;5033078;28;20230;-80
2022/12/30 05:53:32;;;;;;;0.87;0.67;;;;;;;3.81;100.00;98152.63;5032953;28;20221;-79
2022/12/30 05:55:59;;;;;;;0.80;0.80;;;;;;;3.86;100.00;98155.84;5033185;28;20242;-80
2022/12/30 05:58:26;;;;;;;1.17;0.80;;;;;;;3.89;100.00;98154.88;5033147;28;20267;-80
2022/12/30 06:00:53;;;;;;;1.53;1.20;;;;;;;3.90;100.00;98151.34;5052886;22;20669;-77
2022/12/30 06:03:19;;;;;;;1.53;0.90;;;;;;;3.94;100.00;98148.56;5072742;28;20210;-77
2022/12/30 06:05:45;;;;;;;0.90;0.73;;;;;;;3.91;100.00;98146.06;5073227;28;20592;-77
2022/12/30 06:08:12;;;;;;;1.93;1.27;;;;;;;3.92;100.00;98134.69;5072946;28;20239;-77
2022/12/30 06:10:40;;;;;;;1.00;0.93;;;;;;;3.89;100.00;98141.81;5072677;28;20204;-77
2022/12/30 06:13:07;;;;;;;1.87;0.90;;;;;;;3.80;100.00;98137.81;5072756;28;20711;-77
2022/12/30 06:15:33;;;;;;;1.00;0.90;;;;;;;3.73;100.00;98144.22;5073014;28;20226;-77
2022/12/30 06:18:00;;;;;;;1.10;1.00;;;;;;;3.67;100.00;98144.47;5073031;28;20232;-77
2022/12/30 06:20:26;;;;;;;1.80;0.80;;;;;;;3.65;100.00;98141.09;5072435;28;20254;-77
2022/12/30 06:22:53;;;;;;;2.40;1.00;;;;;;;3.65;100.00;98148.06;5072687;28;20213;-77
2022/12/30 06:25:19;;;;;;;1.10;1.00;;;;;;;3.64;100.00;98159.44;5072691;28;20216;-77
2022/12/30 06:27:47;;;;;;;1.20;1.00;;;;;;;3.62;100.00;98164.72;5072378;28;20758;-76
2022/12/30 06:30:14;;;;;;;1.03;0.73;;;;;;;3.55;100.00;98163.28;5072463;28;20212;-77
2022/12/30 06:32:40;;;;;;;2.13;1.10;;;;;;;3.53;100.00;98159.88;5072590;28;20255;-77
2022/12/30 06:35:07;;;;;;;1.00;0.90;;;;;;;3.48;100.00;98154.00;5072505;28;20591;-77
2022/12/30 06:37:34;;;;;;;2.00;1.00;;;;;;;3.45;100.00;98154.13;5072397;28;20452;-77
2022/12/30 06:40:01;;;;;;;1.53;1.27;;;;;;;3.43;100.00;98155.94;5071922;28;20212;-77
2022/12/30 06:42:27;;;;;;;2.17;1.50;;;;;;;3.43;100.00;98155.94;5072527;28;20247;-77
2022/12/30 06:44:55;;;;;;;1.70;1.53;;;;;;;3.37;100.00;98161.41;5072434;28;20224;-77
2022/12/30 06:47:22;;;;;;;1.20;1.10;;;;;;;3.32;100.00;98152.94;5072586;28;20214;-77
2022/12/30 06:49:48;;;;;;;2.10;1.33;;;;;;;3.30;100.00;98159.97;5071895;28;20240;-77
2022/12/30 06:52:15;;;;;;;1.73;1.50;;;;;;;3.26;100.00;98157.53;5072022;28;20235;-78
2022/12/30 06:54:41;;;;;;;1.80;1.50;;;;;;;3.21;100.00;98160.34;5072013;28;20219;-77
2022/12/30 06:57:08;;;;;;;1.57;1.47;;;;;;;3.16;100.00;98149.22;5071998;28;20197;-77
2022/12/30 06:59:34;;;;;;;2.30;1.40;;;;;;;3.07;100.00;98153.97;5071937;28;20207;-77
2022/12/30 07:02:02;;;;;;;1.57;1.33;;;;;;;3.03;100.00;98152.38;5071760;28;20685;-79
2022/12/30 07:04:29;;;;;;;3.17;1.50;;;;;;;2.97;100.00;98160.44;5072019;28;20208;-78
2022/12/30 07:06:55;;;;;;;1.77;1.40;;;;;;;2.91;100.00;98156.31;5076574;28;20218;-75
2022/12/30 07:09:22;;;;;;;2.47;1.70;;;;;;;2.91;100.00;98158.06;5089090;28;20232;-79
2022/12/30 07:11:48;;;;;;;2.10;1.87;;;;;;;2.92;100.00;98157.16;5092974;28;20230;-76
2022/12/30 07:14:15;;;;;;;3.30;2.07;;;;;;;2.94;100.00;98163.19;5076226;28;20203;-78
2022/12/30 07:16:41;;;;;;;4.50;1.87;;;;;;;2.94;100.00;98161.41;5071986;28;20658;-78
2022/12/30 07:19:09;;;;;;;2.70;2.20;;;;;;;2.96;100.00;98164.81;5071363;28;20204;-77
2022/12/30 07:21:35;;;;;;;3.00;2.63;;;;;;;3.12;100.00;98176.34;5071588;28;20248;-78
2022/12/30 07:24:02;;;;;;;2.83;2.00;;;;;;;3.06;100.00;98173.97;5071716;28;20213;-78
2022/12/30 07:26:29;;;;;;;2.50;2.30;;;;;;;3.05;100.00;98164.44;5071487;28;20213;-78
2022/12/30 07:28:56;;;;;;;2.07;1.87;;;;;;;2.91;100.00;98169.38;5071340;28;20227;-78
2022/12/30 07:31:23;;;;;;;2.10;1.90;;;;;;;2.85;100.00;98166.13;5071593;28;20227;-77
2022/12/30 07:33:49;;;;;;;4.23;2.00;;;;;;;2.82;100.00;98156.66;5071637;28;20212;-75
2022/12/30 07:36:17;;;;;;;3.53;2.33;;;;;;;2.82;100.00;98161.03;5071392;28;20260;-78
2022/12/30 07:38:44;;;;;;;2.93;2.60;;;;;;;2.88;100.00;98166.84;5071602;28;20205;-78
2022/12/30 07:41:11;;;;;;;2.60;2.20;;;;;;;2.95;100.00;98165.72;5071446;28;20243;-78
2022/12/30 07:43:38;;;;;;;2.23;1.97;;;;;;;3.01;100.00;98162.03;5071677;28;20206;-78
2022/12/30 07:46:06;;;;;;;3.37;2.63;;;;;;;3.09;100.00;98168.66;5071367;28;20211;-78
2022/12/30 07:48:32;;;;;;;2.70;2.40;;;;;;;3.15;100.00;98163.19;5071164;28;20276;-77
2022/12/30 07:50:59;;;;;;;3.07;2.60;;;;;;;3.20;100.00;98158.66;5070700;28;20227;-77
2022/12/30 07:53:27;;;;;;;3.57;2.90;;;;;;;3.26;100.00;98153.19;5071453;28;20211;-80
2022/12/30 07:55:53;;;;;;;4.23;2.50;;;;;;;3.27;100.00;98160.09;5071501;28;20208;-79
2022/12/30 07:58:20;;;;;;;3.80;2.80;;;;;;;3.33;100.00;98149.41;5071330;28;20211;-80
2022/12/30 08:00:46;;;;;;;3.50;2.60;;;;;;;3.37;100.00;98145.72;5069737;28;20604;-80
2022/12/30 08:03:13;;;;;;;3.33;2.60;;;;;;;3.45;100.00;98151.53;5069518;28;20212;-81
2022/12/30 08:05:39;;;;;;;2.93;2.47;;;;;;;3.49;100.00;98155.69;5070405;28;20215;-79
2022/12/30 08:08:07;;;;;;;3.97;2.60;;;;;;;3.54;100.00;98153.75;5070107;28;20217;-79
2022/12/30 08:10:35;;;;;;;4.33;2.50;;;;;;;3.55;100.00;98154.59;5069480;28;20220;-79
2022/12/30 08:13:03;;;;;;;3.40;2.60;;;;;;;3.60;100.00;98147.44;5055867;28;20210;-79
2022/12/30 08:15:30;;;;;;;2.83;2.53;;;;;;;3.61;100.00;98146.53;5050374;28;20227;-80
2022/12/30 08:17:57;;;;;;;4.10;3.20;;;;;;;3.64;100.00;98143.75;5050090;28;20216;-79
2022/12/30 08:20:23;;;;;;;4.30;2.70;;;;;;;3.64;100.00;98146.38;5049936;28;20208;-80
2022/12/30 08:22:50;;;;;;;2.67;2.47;;;;;;;3.67;100.00;98147.09;5049773;28;20664;-83
2022/12/30 08:25:16;;;;;;;3.10;2.80;;;;;;;3.69;100.00;98147.91;5052074;28;20210;-79
2022/12/30 08:27:44;;;;;;;3.60;2.90;;;;;;;3.71;100.00;98146.06;5054268;28;20577;-80
2022/12/30 08:30:12;;;;;;;3.57;2.97;;;;;;;3.77;100.00;98140.56;5053800;28;20228;-79
2022/12/30 08:32:39;;;;;;;3.47;3.07;;;;;;;3.83;100.00;98140.31;5054259;28;20719;-78
2022/12/30 08:35:08;;;;;;;3.00;2.70;;;;;;;3.94;100.00;98135.50;5054991;28;20542;-78
2022/12/30 08:37:35;;;;;;;3.97;2.87;;;;;;;3.99;100.00;98138.75;5054774;28;20213;-78
2022/12/30 08:40:02;;;;;;;5.33;2.90;;;;;;;4.04;100.00;98136.78;5054405;28;20645;-78
2022/12/30 08:42:28;;;;;;;3.37;2.67;;;;;;;4.16;100.00;98128.41;5054431;28;20232;-77
2022/12/30 08:44:56;;;;;;;2.47;2.10;;;;;;;4.16;100.00;98123.16;5054592;28;20205;-80
2022/12/30 08:47:23;;;;;;;3.10;2.53;;;;;;;4.19;100.00;98122.19;5054658;28;20307;-80
2022/12/30 08:49:49;;;;;;;2.80;2.57;;;;;;;4.27;100.00;98110.47;5054315;28;20242;-79
2022/12/30 08:52:15;;;;;;;3.92;3.30;;;;;;;4.40;100.00;98114.22;5053668;28;20439;-77
2022/12/30 08:54:42;;;;;;;3.30;3.00;;;;;;;4.63;100.00;98114.03;5054360;28;20213;-78
2022/12/30 08:57:10;;;;;;;3.67;2.80;;;;;;;4.80;100.00;98121.09;5054460;28;20211;-79
2022/12/30 08:59:36;;;;;;;2.97;2.10;;;;;;;4.91;100.00;98113.59;5054003;28;20209;-78
2022/12/30 09:02:05;;;;;;;2.90;2.60;;;;;;;4.98;100.00;98100.16;5054217;28;20242;-79
2022/12/30 09:04:31;;;;;;;3.40;2.90;;;;;;;5.04;100.00;98099.88;5054268;28;20209;-79
2022/12/30 09:06:58;;;;;;;4.17;3.40;;;;;;;5.01;100.00;98100.00;5054463;28;20212;-79
2022/12/30 09:09:24;;;;;;;3.80;3.00;;;;;;;5.02;100.00;98104.31;5053797;28;20781;-79
2022/12/30 09:11:51;;;;;;;4.47;3.20;;;;;;;5.03;100.00;98098.19;5054269;28;20230;-80
2022/12/30 09:14:18;;;;;;;3.93;2.90;;;;;;;5.08;100.00;98095.31;5053929;28;20210;-79
2022/12/30 09:16:45;;;;;;;3.33;2.70;;;;;;;5.21;100.00;98107.78;5066682;28;20238;-79
2022/12/30 09:19:13;;;;;;;2.90;2.60;;;;;;;5.19;100.00;98106.97;5075913;28;20248;-79
2022/12/30 09:21:39;;;;;;;2.83;2.63;;;;;;;5.11;100.00;98103.88;5076047;28;20222;-79
2022/12/30 09:24:06;;;;;;;3.23;2.60;;;;;;;5.15;100.00;98104.59;5057430;28;20209;-79
2022/12/30 09:26:33;;;;;;;3.77;3.17;;;;;;;5.27;100.00;98096.13;5053680;28;20207;-79
2022/12/30 09:28:59;;;;;;;3.57;2.80;;;;;;;5.19;100.00;98096.50;5053465;28;20227;-79
2022/12/30 09:31:26;;;;;;;4.33;2.97;;;;;;;5.18;100.00;98096.56;5053731;28;20230;-79
2022/12/30 09:33:53;;;;;;;2.73;2.53;;;;;;;5.16;100.00;98094.03;5053594;28;20202;-78
2022/12/30 09:36:21;;;;;;;4.27;2.83;;;;;;;5.21;100.00;98091.19;5052463;28;20208;-77
2022/12/30 09:38:48;;;;;;;3.40;2.93;;;;;;;5.28;100.00;98088.22;5053386;28;20223;-79
2022/12/30 09:44:20;;;;;;;5.00;2.37;;;;;;;5.37;100.00;98074.63;5052386;28;20801;-79
2022/12/30 09:46:51;;;;;;;2.20;2.00;;;;;;;5.42;100.00;98070.03;5053464;28;20217;-80
2022/12/30 09:49:25;;;;;;;2.07;1.87;;;;;;;5.46;100.00;98065.47;5053057;28;20234;-80
2022/12/30 09:51:59;;;;;;;2.20;1.83;;;;;;;5.49;100.00;98055.69;5053260;28;20258;-80
2022/12/30 09:54:28;;;;;;;2.07;1.80;;;;;;;5.51;100.00;98050.38;5053160;28;20211;-80
2022/12/30 09:57:30;;;;;;;2.37;2.07;;;;;;;5.55;100.00;98047.50;5053212;28;20219;-79
2022/12/30 09:59:52;;;;;;;2.10;1.90;;;;;;;5.56;100.00;98036.09;5052719;28;20694;-79
2022/12/30 10:02:21;;;;;;;2.60;2.10;;;;;;;5.62;100.00;98029.72;5052837;28;20264;-80
2022/12/30 10:04:49;;;;;;;2.77;2.00;;;;;;;5.69;100.00;98026.66;5053353;28;20238;-78
2022/12/30 10:07:26;;;;;;;2.27;2.07;;;;;;;5.69;100.00;98021.41;5053285;28;20216;-78
2022/12/30 10:09:57;;;;;;;3.28;2.58;;;;;;;5.82;100.00;98008.56;5051829;28;20823;-80
2022/12/30 10:12:34;;;;;;;3.63;2.13;;;;;;;5.83;100.00;98008.50;5052833;28;20231;-80
2022/12/30 10:15:19;;;;;;;2.73;2.40;;;;;;;5.84;100.00;97997.09;5053049;28;20215;-80
2022/12/30 10:18:08;;;;;;;2.00;1.80;;;;;;;5.94;100.00;97990.44;5051492;28;20220;-80
2022/12/30 10:20:48;;;;;;;2.50;2.23;;;;;;;6.01;100.00;97986.56;5050762;28;20207;-77
2022/12/30 10:23:29;;;;;;;2.80;1.77;;;;;;;6.02;100.00;97980.38;5051775;28;20227;-80
2022/12/30 10:26:05;;;;;;;2.10;1.90;;;;;;;6.04;100.00;97981.13;5051887;28;20316;-80
2022/12/30 10:28:37;;;;;;;2.80;1.80;;;;;;;6.02;100.00;97972.50;5059498;28;20210;-79
2022/12/30 10:31:07;;;;;;;2.53;2.33;;;;;;;6.04;100.00;97981.13;5051500;28;20230;-80
2022/12/30 10:33:35;;;;;;;2.90;2.33;;;;;;;6.06;100.00;97979.28;5051408;28;20258;-79
2022/12/30 10:36:11;;;;;;;3.40;2.50;;;;;;;6.13;100.00;97974.53;5051801;28;20207;-79
2022/12/30 10:38:40;;;;;;;5.63;2.60;;;;;;;6.13;100.00;97964.91;5051623;28;20211;-79
2022/12/30 10:41:23;;;;;;;3.80;2.70;;;;;;;6.21;100.00;97962.69;5051183;28;20262;-78
2022/12/30 10:44:03;;;;;;;2.80;2.43;;;;;;;6.24;100.00;97967.75;5051614;28;20218;-78
2022/12/30 10:46:43;;;;;;;4.00;2.97;;;;;;;6.31;100.00;97969.16;5051763;28;20435;-79
2022/12/30 10:49:30;;;;;;;3.17;2.50;;;;;;;6.40;100.00;97963.38;5051795;28;20559;-79
2022/12/30 10:51:57;;;;;;;2.60;2.07;;;;;;;6.39;100.00;97953.81;5052018;28;20227;-81
2022/12/30 10:54:25;;;;;;;2.37;2.17;;;;;;;6.48;100.00;97948.03;5052260;28;20218;-79
2022/12/30 10:56:52;;;;;;;2.63;1.90;;;;;;;6.48;100.00;97945.41;5052065;28;20211;-81
2022/12/30 10:59:21;;;;;;;2.87;2.30;;;;;;;6.54;100.00;97939.81;5051942;28;20204;-80
2022/12/30 11:01:52;;;;;;;4.50;2.40;;;;;;;6.55;100.00;97928.41;5052128;28;20615;-79
2022/12/30 11:04:37;;;;;;;2.30;1.90;;;;;;;6.54;100.00;97933.75;5052308;28;20297;-79
2022/12/30 11:07:05;;;;;;;2.57;2.37;;;;;;;6.61;100.00;97922.81;5051795;28;20662;-80
2022/12/30 11:09:34;;;;;;;3.20;2.30;;;;;;;6.71;100.00;97921.34;5051657;28;20231;-81
2022/12/30 11:14:56;;;;;;;3.57;1.60;;;;;;;6.87;100.00;97906.41;5052031;28;20207;-82
2022/12/30 11:17:27;;;;;;;1.57;1.30;;;;;;;6.83;100.00;97909.31;5034326;28;20211;-79
2022/12/30 11:19:55;;;;;;;1.53;1.33;;;;;;;6.86;100.00;97914.38;5053151;28;20204;-84
2022/12/30 11:22:23;;;;;;;1.67;1.37;;;;;;;6.91;100.00;97912.31;5056093;28;20604;-81
2022/12/30 11:24:59;;;;;;;1.43;1.33;;;;;;;6.91;100.00;97907.06;5072682;28;20215;-81
2022/12/30 11:27:37;;;;;;;2.03;1.07;;;;;;;6.99;100.00;97908.31;5076446;28;20195;-80
2022/12/30 11:30:05;;;;;;;1.90;1.30;;;;;;;7.05;100.00;97913.22;5071208;28;20241;-81
2022/12/30 11:32:32;;;;;;;1.93;1.13;;;;;;;7.11;100.00;97909.38;5052031;28;20234;-82
2022/12/30 11:34:59;;;;;;;2.43;1.40;;;;;;;7.05;100.00;97902.69;5051501;28;20207;-79
2022/12/30 11:37:34;;;;;;;3.63;1.30;;;;;;;7.08;100.00;97899.88;5051392;28;20363;-80
2022/12/30 11:40:27;;;;;;;1.67;1.10;;;;;;;7.08;100.00;97907.75;5051184;28;20206;-81
2022/12/30 11:43:09;;;;;;;2.53;1.20;;;;;;;7.03;100.00;97901.94;5051462;28;20211;-81
2022/12/30 11:45:40;;;;;;;1.47;1.03;;;;;;;7.06;100.00;97898.28;5051395;28;20217;-84
2022/12/30 11:48:18;;;;;;;1.20;0.90;;;;;;;7.26;100.00;97892.72;5051203;28;20211;-83
2022/12/30 11:50:51;;;;;;;1.93;0.70;;;;;;;7.31;100.00;97883.59;5050788;28;20235;-82
2022/12/30 11:53:18;;;;;;;1.47;0.87;;;;;;;7.28;100.00;97887.25;5050833;28;20207;-80
2022/12/30 11:55:51;;;;;;;2.10;1.03;;;;;;;7.47;100.00;97877.31;5067180;28;20321;-80
2022/12/30 11:58:19;;;;;;;1.67;1.00;;;;;;;7.66;100.00;97861.25;5068968;28;20200;-81
2022/12/30 12:03:22;;;;;;;3.23;1.27;;;;;;;7.91;100.00;97841.19;5069167;28;20244;-80
2022/12/30 12:05:48;;;;;;;1.30;1.20;;;;;;;7.97;100.00;97834.72;5070511;28;20204;-79
2022/12/30 12:08:21;;;;;;;2.17;1.30;;;;;;;7.93;100.00;97849.00;5069424;28;20222;-79
2022/12/30 12:10:54;;;;;;;1.10;0.87;;;;;;;7.90;100.00;97859.75;5065890;28;20228;-79
2022/12/30 12:13:29;;;;;;;1.30;1.20;;;;;;;7.92;100.00;97857.84;5067559;28;20227;-80
2022/12/30 12:15:58;;;;;;;1.30;1.20;;;;;;;7.97;100.00;97851.34;5056374;28;20204;-78
2022/12/30 12:18:29;;;;;;;1.57;1.37;;;;;;;7.97;100.00;97851.34;5065625;28;20314;-78
2022/12/30 12:21:05;;;;;;;1.20;0.90;;;;;;;8.06;100.00;97834.97;5069635;28;20205;-82
2022/12/30 12:23:46;;;;;;;1.20;1.10;;;;;;;8.07;100.00;97836.66;5069314;28;20288;-81
2022/12/30 12:26:19;;;;;;;1.20;1.10;;;;;;;8.12;100.00;97828.47;5058592;28;20318;-79
2022/12/30 12:28:48;;;;;;;1.30;1.10;;;;;;;8.18;100.00;97828.06;5069991;28;20200;-78
2022/12/30 12:31:32;;;;;;;1.10;0.90;;;;;;;8.21;100.00;97818.22;5070607;28;20269;-80
2022/12/30 12:34:06;;;;;;;1.07;0.97;;;;;;;8.30;100.00;97801.00;5071115;28;20573;-79
2022/12/30 12:36:40;;;;;;;1.53;1.00;;;;;;;8.31;100.00;97797.41;5070624;28;20211;-79
2022/12/30 12:39:11;;;;;;;0.90;0.90;;;;;;;8.25;100.00;97795.19;5070236;28;20214;-76
2022/12/30 12:41:56;;;;;;;1.10;1.00;;;;;;;8.28;100.00;97787.94;5070578;28;20227;-76
2022/12/30 12:45:00;;;;;;;1.10;1.00;;;;;;;8.27;100.00;97791.50;5070478;28;20212;-76
2022/12/30 12:47:53;;;;;;;1.20;1.10;;;;;;;8.29;100.00;97794.03;5070819;28;20218;-76
2022/12/30 12:50:38;;;;;;;1.63;1.10;;;;;;;8.29;100.00;97786.16;5069966;28;20278;-76